sensor_id;sensor_type;location;lat;lon;timestamp;P1;durP1;ratioP1;P2;durP2;ratioP2
25637;SDS011;13496;51.040;13.680;2022-10-17T00:02:42;3.83;;;3.42;;
25637;SDS011;13496;51.040;13.680;2022-10-17T00:07:44;5.07;;;3.95;;
25637;SDS011;13496;51.040;13.680;2022-10-17T00:12:46;4.47;;;4.07;;
25637;SDS011;13496;51.040;13.680;2022-10-17T00:17:48;3.90;;;3.50;;
25637;SDS011;13496;51.040;13.680;2022-10-17T00:22:50;6.90;;;3.47;;
25637;SDS011;13496;51.040;13.680;2022-10-17T00:27:52;4.15;;;3.75;;
25637;SDS011;13496;51.040;13.680;2022-10-17T00:32:54;4.05;;;3.65;;
25637;SDS011;13496;51.040;13.680;2022-10-17T00:37:56;3.92;;;3.53;;
25637;SDS011;13496;51.040;13.680;2022-10-17T00:42:57;4.05;;;3.40;;
25637;SDS011;13496;51.040;13.680;2022-10-17T00:48:00;4.38;;;3.22;;
25637;SDS011;13496;51.040;13.680;2022-10-17T00:53:08;4.25;;;3.42;;
25637;SDS011;13496;51.040;13.680;2022-10-17T00:58:10;3.95;;;3.60;;
25637;SDS011;13496;51.040;13.680;2022-10-17T01:03:12;3.67;;;3.38;;
25637;SDS011;13496;51.040;13.680;2022-10-17T01:08:19;3.70;;;3.40;;
25637;SDS011;13496;51.040;13.680;2022-10-17T01:13:27;4.07;;;3.67;;
25637;SDS011;13496;51.040;13.680;2022-10-17T01:24:03;4.10;;;3.58;;
25637;SDS011;13496;51.040;13.680;2022-10-17T01:34:44;3.47;;;3.20;;
25637;SDS011;13496;51.040;13.680;2022-10-17T01:39:55;3.58;;;3.28;;
25637;SDS011;13496;51.040;13.680;2022-10-17T01:50:31;3.65;;;3.13;;
25637;SDS011;13496;51.040;13.680;2022-10-17T01:55:36;3.58;;;3.00;;
25637;SDS011;13496;51.040;13.680;2022-10-17T02:00:42;4.57;;;3.22;;
25637;SDS011;13496;51.040;13.680;2022-10-17T02:05:45;3.38;;;3.03;;
25637;SDS011;13496;51.040;13.680;2022-10-17T02:10:55;3.65;;;3.35;;
25637;SDS011;13496;51.040;13.680;2022-10-17T02:26:46;3.55;;;3.00;;
25637;SDS011;13496;51.040;13.680;2022-10-17T02:32:03;3.78;;;3.33;;
25637;SDS011;13496;51.040;13.680;2022-10-17T02:37:07;3.40;;;3.10;;
25637;SDS011;13496;51.040;13.680;2022-10-17T02:42:12;3.33;;;2.80;;
25637;SDS011;13496;51.040;13.680;2022-10-17T02:52:53;3.50;;;3.20;;
25637;SDS011;13496;51.040;13.680;2022-10-17T02:58:00;3.40;;;3.00;;
25637;SDS011;13496;51.040;13.680;2022-10-17T03:03:20;2.92;;;2.72;;
25637;SDS011;13496;51.040;13.680;2022-10-17T03:08:25;3.70;;;3.25;;
25637;SDS011;13496;51.040;13.680;2022-10-17T03:13:28;4.93;;;3.50;;
25637;SDS011;13496;51.040;13.680;2022-10-17T03:18:30;3.33;;;3.03;;
25637;SDS011;13496;51.040;13.680;2022-10-17T03:23:35;3.40;;;3.10;;
25637;SDS011;13496;51.040;13.680;2022-10-17T03:28:39;3.83;;;3.40;;
25637;SDS011;13496;51.040;13.680;2022-10-17T03:33:41;3.22;;;2.92;;
25637;SDS011;13496;51.040;13.680;2022-10-17T03:38:43;3.63;;;3.33;;
25637;SDS011;13496;51.040;13.680;2022-10-17T03:43:46;3.08;;;2.88;;
25637;SDS011;13496;51.040;13.680;2022-10-17T03:48:48;3.97;;;3.35;;
25637;SDS011;13496;51.040;13.680;2022-10-17T03:53:51;2.95;;;2.75;;
25637;SDS011;13496;51.040;13.680;2022-10-17T03:58:53;3.50;;;3.20;;
25637;SDS011;13496;51.040;13.680;2022-10-17T04:03:56;3.92;;;3.63;;
25637;SDS011;13496;51.040;13.680;2022-10-17T04:09:01;4.10;;;3.40;;
25637;SDS011;13496;51.040;13.680;2022-10-17T04:14:14;3.63;;;3.33;;
25637;SDS011;13496;51.040;13.680;2022-10-17T04:19:17;6.57;;;3.25;;
25637;SDS011;13496;51.040;13.680;2022-10-17T04:24:21;3.72;;;3.42;;
25637;SDS011;13496;51.040;13.680;2022-10-17T04:29:37;3.30;;;3.00;;
25637;SDS011;13496;51.040;13.680;2022-10-17T04:34:48;3.67;;;3.38;;
25637;SDS011;13496;51.040;13.680;2022-10-17T04:39:51;4.97;;;3.55;;
25637;SDS011;13496;51.040;13.680;2022-10-17T04:44:52;4.22;;;3.83;;
25637;SDS011;13496;51.040;13.680;2022-10-17T04:49:56;3.72;;;3.42;;
25637;SDS011;13496;51.040;13.680;2022-10-17T04:54:58;3.85;;;3.55;;
25637;SDS011;13496;51.040;13.680;2022-10-17T05:00:01;3.60;;;3.30;;
25637;SDS011;13496;51.040;13.680;2022-10-17T05:05:23;3.97;;;3.58;;
25637;SDS011;13496;51.040;13.680;2022-10-17T05:10:28;4.10;;;3.70;;
25637;SDS011;13496;51.040;13.680;2022-10-17T05:15:30;3.92;;;3.55;;
25637;SDS011;13496;51.040;13.680;2022-10-17T05:20:32;3.42;;;3.13;;
25637;SDS011;13496;51.040;13.680;2022-10-17T05:25:35;4.03;;;3.63;;
25637;SDS011;13496;51.040;13.680;2022-10-17T05:30:36;4.10;;;3.70;;
25637;SDS011;13496;51.040;13.680;2022-10-17T05:35:39;4.40;;;4.00;;
25637;SDS011;13496;51.040;13.680;2022-10-17T05:40:41;5.40;;;4.47;;
25637;SDS011;13496;51.040;13.680;2022-10-17T05:45:44;4.88;;;4.13;;
25637;SDS011;13496;51.040;13.680;2022-10-17T05:50:59;4.88;;;4.47;;
25637;SDS011;13496;51.040;13.680;2022-10-17T05:56:10;4.47;;;4.07;;
25637;SDS011;13496;51.040;13.680;2022-10-17T06:01:13;4.55;;;4.15;;
25637;SDS011;13496;51.040;13.680;2022-10-17T06:06:15;5.20;;;4.75;;
25637;SDS011;13496;51.040;13.680;2022-10-17T06:11:19;4.57;;;4.18;;
25637;SDS011;13496;51.040;13.680;2022-10-17T06:16:21;4.63;;;4.20;;
25637;SDS011;13496;51.040;13.680;2022-10-17T06:21:24;4.80;;;4.40;;
25637;SDS011;13496;51.040;13.680;2022-10-17T06:26:36;4.88;;;4.47;;
25637;SDS011;13496;51.040;13.680;2022-10-17T06:31:40;5.10;;;4.70;;
25637;SDS011;13496;51.040;13.680;2022-10-17T06:36:42;4.80;;;4.40;;
25637;SDS011;13496;51.040;13.680;2022-10-17T06:41:45;5.88;;;5.28;;
25637;SDS011;13496;51.040;13.680;2022-10-17T06:46:52;6.18;;;5.53;;
25637;SDS011;13496;51.040;13.680;2022-10-17T06:51:53;6.13;;;5.53;;
25637;SDS011;13496;51.040;13.680;2022-10-17T06:57:04;6.78;;;6.18;;
25637;SDS011;13496;51.040;13.680;2022-10-17T07:02:24;5.88;;;5.38;;
25637;SDS011;13496;51.040;13.680;2022-10-17T07:07:30;5.90;;;5.32;;
25637;SDS011;13496;51.040;13.680;2022-10-17T07:12:33;6.57;;;5.97;;
25637;SDS011;13496;51.040;13.680;2022-10-17T07:17:35;8.70;;;5.57;;
25637;SDS011;13496;51.040;13.680;2022-10-17T07:22:37;6.50;;;5.68;;
25637;SDS011;13496;51.040;13.680;2022-10-17T07:27:39;8.38;;;6.97;;
25637;SDS011;13496;51.040;13.680;2022-10-17T07:32:41;7.45;;;6.75;;
25637;SDS011;13496;51.040;13.680;2022-10-17T07:37:44;6.43;;;5.88;;
25637;SDS011;13496;51.040;13.680;2022-10-17T07:42:48;6.10;;;5.60;;
25637;SDS011;13496;51.040;13.680;2022-10-17T07:47:54;6.55;;;5.90;;
25637;SDS011;13496;51.040;13.680;2022-10-17T07:52:56;6.03;;;5.43;;
25637;SDS011;13496;51.040;13.680;2022-10-17T07:57:58;6.68;;;6.07;;
25637;SDS011;13496;51.040;13.680;2022-10-17T08:03:03;6.25;;;5.30;;
25637;SDS011;13496;51.040;13.680;2022-10-17T08:08:05;6.45;;;5.85;;
25637;SDS011;13496;51.040;13.680;2022-10-17T08:13:07;8.05;;;7.03;;
25637;SDS011;13496;51.040;13.680;2022-10-17T08:18:09;7.65;;;6.88;;
25637;SDS011;13496;51.040;13.680;2022-10-17T08:23:11;7.25;;;6.05;;
25637;SDS011;13496;51.040;13.680;2022-10-17T08:28:12;7.60;;;6.90;;
25637;SDS011;13496;51.040;13.680;2022-10-17T08:33:14;7.13;;;6.43;;
25637;SDS011;13496;51.040;13.680;2022-10-17T08:38:16;8.30;;;6.55;;
25637;SDS011;13496;51.040;13.680;2022-10-17T08:48:34;7.78;;;6.65;;
25637;SDS011;13496;51.040;13.680;2022-10-17T08:53:42;8.45;;;7.10;;
25637;SDS011;13496;51.040;13.680;2022-10-17T08:58:49;7.80;;;6.32;;
25637;SDS011;13496;51.040;13.680;2022-10-17T09:09:06;6.53;;;6.03;;
25637;SDS011;13496;51.040;13.680;2022-10-17T09:14:19;7.25;;;6.50;;
25637;SDS011;13496;51.040;13.680;2022-10-17T09:19:32;6.75;;;6.15;;
25637;SDS011;13496;51.040;13.680;2022-10-17T09:35:21;6.90;;;6.30;;
25637;SDS011;13496;51.040;13.680;2022-10-17T09:40:30;7.57;;;6.80;;
25637;SDS011;13496;51.040;13.680;2022-10-17T09:45:36;6.85;;;6.15;;
25637;SDS011;13496;51.040;13.680;2022-10-17T09:50:44;7.30;;;6.60;;
25637;SDS011;13496;51.040;13.680;2022-10-17T09:55:48;7.65;;;6.80;;
25637;SDS011;13496;51.040;13.680;2022-10-17T10:00:57;7.72;;;6.97;;
25637;SDS011;13496;51.040;13.680;2022-10-17T10:06:17;7.93;;;7.22;;
25637;SDS011;13496;51.040;13.680;2022-10-17T10:17:00;8.88;;;6.93;;
25637;SDS011;13496;51.040;13.680;2022-10-17T10:22:04;8.65;;;7.85;;
25637;SDS011;13496;51.040;13.680;2022-10-17T10:27:15;8.63;;;7.82;;
25637;SDS011;13496;51.040;13.680;2022-10-17T10:32:22;8.20;;;7.40;;
25637;SDS011;13496;51.040;13.680;2022-10-17T10:37:28;8.55;;;7.60;;
25637;SDS011;13496;51.040;13.680;2022-10-17T10:42:34;8.13;;;7.32;;
25637;SDS011;13496;51.040;13.680;2022-10-17T10:47:39;9.63;;;7.85;;
25637;SDS011;13496;51.040;13.680;2022-10-17T10:58:00;10.50;;;8.18;;
25637;SDS011;13496;51.040;13.680;2022-10-17T11:03:18;8.98;;;8.18;;
25637;SDS011;13496;51.040;13.680;2022-10-17T11:08:33;9.95;;;7.75;;
25637;SDS011;13496;51.040;13.680;2022-10-17T11:13:42;8.32;;;7.53;;
25637;SDS011;13496;51.040;13.680;2022-10-17T11:24:33;8.40;;;7.60;;
25637;SDS011;13496;51.040;13.680;2022-10-17T11:29:41;8.90;;;8.00;;
25637;SDS011;13496;51.040;13.680;2022-10-17T11:34:49;8.77;;;7.97;;
25637;SDS011;13496;51.040;13.680;2022-10-17T11:39:55;8.20;;;7.50;;
25637;SDS011;13496;51.040;13.680;2022-10-17T11:45:04;9.20;;;8.30;;
25637;SDS011;13496;51.040;13.680;2022-10-17T11:50:17;8.95;;;8.15;;
25637;SDS011;13496;51.040;13.680;2022-10-17T11:55:28;22.08;;;9.20;;
25637;SDS011;13496;51.040;13.680;2022-10-17T12:00:35;14.43;;;8.48;;
25637;SDS011;13496;51.040;13.680;2022-10-17T12:06:17;10.02;;;8.68;;
25637;SDS011;13496;51.040;13.680;2022-10-17T12:11:12;12.32;;;9.38;;
25637;SDS011;13496;51.040;13.680;2022-10-17T12:21:41;9.50;;;8.45;;
25637;SDS011;13496;51.040;13.680;2022-10-17T12:26:55;8.15;;;7.45;;
25637;SDS011;13496;51.040;13.680;2022-10-17T12:32:08;8.93;;;8.02;;
25637;SDS011;13496;51.040;13.680;2022-10-17T12:37:12;9.10;;;8.25;;
25637;SDS011;13496;51.040;13.680;2022-10-17T12:42:28;9.32;;;8.43;;
25637;SDS011;13496;51.040;13.680;2022-10-17T12:47:37;9.20;;;8.40;;
25637;SDS011;13496;51.040;13.680;2022-10-17T12:57:43;9.05;;;8.15;;
25637;SDS011;13496;51.040;13.680;2022-10-17T13:02:49;10.18;;;9.13;;
25637;SDS011;13496;51.040;13.680;2022-10-17T13:07:55;9.75;;;8.35;;
25637;SDS011;13496;51.040;13.680;2022-10-17T13:13:02;10.55;;;9.38;;
25637;SDS011;13496;51.040;13.680;2022-10-17T13:18:21;9.10;;;8.30;;
25637;SDS011;13496;51.040;13.680;2022-10-17T13:23:27;9.05;;;8.25;;
25637;SDS011;13496;51.040;13.680;2022-10-17T13:28:31;9.25;;;8.20;;
25637;SDS011;13496;51.040;13.680;2022-10-17T13:33:34;9.23;;;8.40;;
25637;SDS011;13496;51.040;13.680;2022-10-17T13:38:39;9.57;;;8.70;;
25637;SDS011;13496;51.040;13.680;2022-10-17T13:43:42;10.20;;;9.20;;
25637;SDS011;13496;51.040;13.680;2022-10-17T13:48:44;9.13;;;8.15;;
25637;SDS011;13496;51.040;13.680;2022-10-17T13:53:45;8.85;;;8.05;;
25637;SDS011;13496;51.040;13.680;2022-10-17T13:58:51;9.32;;;8.43;;
25637;SDS011;13496;51.040;13.680;2022-10-17T14:03:57;9.38;;;8.48;;
25637;SDS011;13496;51.040;13.680;2022-10-17T14:09:00;9.55;;;8.65;;
25637;SDS011;13496;51.040;13.680;2022-10-17T14:14:18;9.20;;;8.35;;
25637;SDS011;13496;51.040;13.680;2022-10-17T14:19:27;9.18;;;8.38;;
25637;SDS011;13496;51.040;13.680;2022-10-17T14:24:32;9.77;;;8.77;;
25637;SDS011;13496;51.040;13.680;2022-10-17T14:29:54;9.95;;;8.95;;
25637;SDS011;13496;51.040;13.680;2022-10-17T14:35:02;9.52;;;8.63;;
25637;SDS011;13496;51.040;13.680;2022-10-17T14:40:06;9.35;;;8.55;;
25637;SDS011;13496;51.040;13.680;2022-10-17T14:45:11;9.55;;;8.65;;
25637;SDS011;13496;51.040;13.680;2022-10-17T14:55:23;9.55;;;8.65;;
25637;SDS011;13496;51.040;13.680;2022-10-17T15:00:27;10.30;;;9.30;;
25637;SDS011;13496;51.040;13.680;2022-10-17T15:05:29;10.40;;;9.40;;
25637;SDS011;13496;51.040;13.680;2022-10-17T15:10:33;10.50;;;9.52;;
25637;SDS011;13496;51.040;13.680;2022-10-17T15:15:36;11.50;;;10.32;;
25637;SDS011;13496;51.040;13.680;2022-10-17T15:20:39;10.02;;;9.07;;
25637;SDS011;13496;51.040;13.680;2022-10-17T15:25:41;10.40;;;9.32;;
25637;SDS011;13496;51.040;13.680;2022-10-17T15:30:42;10.68;;;9.68;;
25637;SDS011;13496;51.040;13.680;2022-10-17T15:35:44;11.45;;;10.35;;
25637;SDS011;13496;51.040;13.680;2022-10-17T15:40:46;12.25;;;10.77;;
25637;SDS011;13496;51.040;13.680;2022-10-17T15:45:51;10.85;;;9.80;;
25637;SDS011;13496;51.040;13.680;2022-10-17T15:50:53;11.98;;;10.85;;
25637;SDS011;13496;51.040;13.680;2022-10-17T15:55:54;11.15;;;10.20;;
25637;SDS011;13496;51.040;13.680;2022-10-17T16:00:56;12.05;;;10.95;;
25637;SDS011;13496;51.040;13.680;2022-10-17T16:05:58;12.10;;;10.90;;
25637;SDS011;13496;51.040;13.680;2022-10-17T16:11:00;12.55;;;11.35;;
25637;SDS011;13496;51.040;13.680;2022-10-17T16:16:02;13.15;;;11.85;;
25637;SDS011;13496;51.040;13.680;2022-10-17T16:21:04;12.65;;;11.45;;
25637;SDS011;13496;51.040;13.680;2022-10-17T16:26:06;12.55;;;11.35;;
25637;SDS011;13496;51.040;13.680;2022-10-17T16:31:14;12.05;;;10.95;;
25637;SDS011;13496;51.040;13.680;2022-10-17T16:36:20;12.82;;;11.65;;
25637;SDS011;13496;51.040;13.680;2022-10-17T16:41:24;12.32;;;11.13;;
25637;SDS011;13496;51.040;13.680;2022-10-17T16:46:28;12.32;;;11.15;;
25637;SDS011;13496;51.040;13.680;2022-10-17T16:51:31;12.95;;;11.55;;
25637;SDS011;13496;51.040;13.680;2022-10-17T16:56:34;13.10;;;11.80;;
25637;SDS011;13496;51.040;13.680;2022-10-17T17:01:35;13.13;;;11.88;;
25637;SDS011;13496;51.040;13.680;2022-10-17T17:06:38;14.10;;;12.70;;
25637;SDS011;13496;51.040;13.680;2022-10-17T17:11:40;13.68;;;12.30;;
25637;SDS011;13496;51.040;13.680;2022-10-17T17:16:41;14.90;;;13.40;;
25637;SDS011;13496;51.040;13.680;2022-10-17T17:21:43;13.38;;;12.07;;
25637;SDS011;13496;51.040;13.680;2022-10-17T17:26:51;14.38;;;12.98;;
25637;SDS011;13496;51.040;13.680;2022-10-17T17:31:53;14.18;;;12.77;;
25637;SDS011;13496;51.040;13.680;2022-10-17T17:36:55;14.60;;;13.10;;
25637;SDS011;13496;51.040;13.680;2022-10-17T17:41:57;13.43;;;12.07;;
25637;SDS011;13496;51.040;13.680;2022-10-17T17:46:59;15.15;;;12.65;;
25637;SDS011;13496;51.040;13.680;2022-10-17T17:52:00;16.17;;;14.07;;
25637;SDS011;13496;51.040;13.680;2022-10-17T17:57:02;15.38;;;13.85;;
25637;SDS011;13496;51.040;13.680;2022-10-17T18:02:04;15.60;;;14.15;;
25637;SDS011;13496;51.040;13.680;2022-10-17T18:07:07;16.67;;;15.02;;
25637;SDS011;13496;51.040;13.680;2022-10-17T18:12:08;16.50;;;14.75;;
25637;SDS011;13496;51.040;13.680;2022-10-17T18:17:10;16.67;;;14.93;;
25637;SDS011;13496;51.040;13.680;2022-10-17T18:22:12;16.38;;;14.73;;
25637;SDS011;13496;51.040;13.680;2022-10-17T18:27:13;15.70;;;14.07;;
25637;SDS011;13496;51.040;13.680;2022-10-17T18:32:16;17.58;;;14.82;;
25637;SDS011;13496;51.040;13.680;2022-10-17T18:37:18;15.93;;;14.27;;
25637;SDS011;13496;51.040;13.680;2022-10-17T18:42:20;14.90;;;13.40;;
25637;SDS011;13496;51.040;13.680;2022-10-17T18:47:22;25.58;;;15.52;;
25637;SDS011;13496;51.040;13.680;2022-10-17T18:52:23;20.02;;;15.20;;
25637;SDS011;13496;51.040;13.680;2022-10-17T18:57:25;14.55;;;13.15;;
25637;SDS011;13496;51.040;13.680;2022-10-17T19:02:27;15.73;;;13.73;;
25637;SDS011;13496;51.040;13.680;2022-10-17T19:07:29;14.82;;;13.07;;
25637;SDS011;13496;51.040;13.680;2022-10-17T19:12:30;15.60;;;13.95;;
25637;SDS011;13496;51.040;13.680;2022-10-17T19:17:32;18.88;;;13.73;;
25637;SDS011;13496;51.040;13.680;2022-10-17T19:22:34;16.40;;;13.32;;
25637;SDS011;13496;51.040;13.680;2022-10-17T19:27:36;15.38;;;13.77;;
25637;SDS011;13496;51.040;13.680;2022-10-17T19:32:38;14.65;;;13.15;;
25637;SDS011;13496;51.040;13.680;2022-10-17T19:37:40;14.93;;;13.35;;
25637;SDS011;13496;51.040;13.680;2022-10-17T19:42:42;14.00;;;12.50;;
25637;SDS011;13496;51.040;13.680;2022-10-17T19:47:43;15.23;;;13.70;;
25637;SDS011;13496;51.040;13.680;2022-10-17T19:52:45;14.85;;;13.30;;
25637;SDS011;13496;51.040;13.680;2022-10-17T19:57:47;13.77;;;12.38;;
25637;SDS011;13496;51.040;13.680;2022-10-17T20:02:49;14.32;;;12.82;;
25637;SDS011;13496;51.040;13.680;2022-10-17T20:07:50;14.25;;;12.88;;
25637;SDS011;13496;51.040;13.680;2022-10-17T20:12:52;13.90;;;12.40;;
25637;SDS011;13496;51.040;13.680;2022-10-17T20:17:54;14.15;;;12.73;;
25637;SDS011;13496;51.040;13.680;2022-10-17T20:22:56;13.98;;;12.68;;
25637;SDS011;13496;51.040;13.680;2022-10-17T20:27:57;15.20;;;13.70;;
25637;SDS011;13496;51.040;13.680;2022-10-17T20:32:59;14.50;;;12.70;;
25637;SDS011;13496;51.040;13.680;2022-10-17T20:38:01;12.65;;;11.52;;
25637;SDS011;13496;51.040;13.680;2022-10-17T20:43:03;13.98;;;12.60;;
25637;SDS011;13496;51.040;13.680;2022-10-17T20:48:08;13.68;;;12.27;;
25637;SDS011;13496;51.040;13.680;2022-10-17T20:53:14;14.18;;;12.77;;
25637;SDS011;13496;51.040;13.680;2022-10-17T20:58:16;13.55;;;12.32;;
25637;SDS011;13496;51.040;13.680;2022-10-17T21:03:18;13.32;;;12.13;;
25637;SDS011;13496;51.040;13.680;2022-10-17T21:08:19;13.73;;;12.38;;
25637;SDS011;13496;51.040;13.680;2022-10-17T21:13:21;13.45;;;12.15;;
25637;SDS011;13496;51.040;13.680;2022-10-17T21:18:23;14.75;;;12.98;;
25637;SDS011;13496;51.040;13.680;2022-10-17T21:23:25;12.45;;;11.32;;
25637;SDS011;13496;51.040;13.680;2022-10-17T21:28:28;14.25;;;12.75;;
25637;SDS011;13496;51.040;13.680;2022-10-17T21:33:31;12.65;;;11.35;;
25637;SDS011;13496;51.040;13.680;2022-10-17T21:38:33;13.48;;;12.10;;
25637;SDS011;13496;51.040;13.680;2022-10-17T21:43:37;13.32;;;12.10;;
25637;SDS011;13496;51.040;13.680;2022-10-17T21:48:39;12.57;;;11.48;;
25637;SDS011;13496;51.040;13.680;2022-10-17T21:53:41;13.35;;;12.15;;
25637;SDS011;13496;51.040;13.680;2022-10-17T21:58:44;13.05;;;11.85;;
25637;SDS011;13496;51.040;13.680;2022-10-17T22:03:48;11.98;;;10.88;;
25637;SDS011;13496;51.040;13.680;2022-10-17T22:08:51;13.38;;;12.15;;
25637;SDS011;13496;51.040;13.680;2022-10-17T22:13:59;13.20;;;12.00;;
25637;SDS011;13496;51.040;13.680;2022-10-17T22:19:02;13.65;;;12.23;;
25637;SDS011;13496;51.040;13.680;2022-10-17T22:24:07;12.52;;;11.32;;
25637;SDS011;13496;51.040;13.680;2022-10-17T22:29:13;12.45;;;11.25;;
25637;SDS011;13496;51.040;13.680;2022-10-17T22:34:15;12.50;;;11.30;;
25637;SDS011;13496;51.040;13.680;2022-10-17T22:39:18;12.40;;;11.20;;
25637;SDS011;13496;51.040;13.680;2022-10-17T22:44:20;12.40;;;11.25;;
25637;SDS011;13496;51.040;13.680;2022-10-17T22:49:21;12.48;;;11.38;;
25637;SDS011;13496;51.040;13.680;2022-10-17T22:54:23;12.60;;;11.00;;
25637;SDS011;13496;51.040;13.680;2022-10-17T22:59:25;12.20;;;11.10;;
25637;SDS011;13496;51.040;13.680;2022-10-17T23:04:27;12.38;;;11.20;;
25637;SDS011;13496;51.040;13.680;2022-10-17T23:09:28;12.77;;;11.48;;
25637;SDS011;13496;51.040;13.680;2022-10-17T23:14:30;12.18;;;10.98;;
25637;SDS011;13496;51.040;13.680;2022-10-17T23:19:32;12.73;;;11.50;;
25637;SDS011;13496;51.040;13.680;2022-10-17T23:24:34;11.82;;;10.73;;
25637;SDS011;13496;51.040;13.680;2022-10-17T23:29:36;12.57;;;11.43;;
25637;SDS011;13496;51.040;13.680;2022-10-17T23:34:38;12.70;;;11.52;;
25637;SDS011;13496;51.040;13.680;2022-10-17T23:39:39;11.50;;;10.50;;
25637;SDS011;13496;51.040;13.680;2022-10-17T23:44:41;12.55;;;11.27;;
25637;SDS011;13496;51.040;13.680;2022-10-17T23:49:43;11.85;;;10.65;;
25637;SDS011;13496;51.040;13.680;2022-10-17T23:54:44;11.95;;;10.90;;
25637;SDS011;13496;51.040;13.680;2022-10-17T23:59:46;12.77;;;11.60;;
